sensor_id;sensor_type;location;lat;lon;timestamp;temperature;humidity
48019;DHT22;33786;48.690;9.562;2023-06-26T00:01:33;15.40;99.90
48019;DHT22;33786;48.690;9.562;2023-06-26T00:04:00;15.30;99.90
48019;DHT22;33786;48.690;9.562;2023-06-26T00:06:28;15.30;99.90
48019;DHT22;33786;48.690;9.562;2023-06-26T00:08:55;15.20;99.90
48019;DHT22;33786;48.690;9.562;2023-06-26T00:11:22;15.20;99.90
48019;DHT22;33786;48.690;9.562;2023-06-26T00:13:48;15.20;99.90
48019;DHT22;33786;48.690;9.562;2023-06-26T00:16:15;15.20;99.90
48019;DHT22;33786;48.690;9.562;2023-06-26T00:18:42;15.10;99.90
48019;DHT22;33786;48.690;9.562;2023-06-26T00:21:09;15.10;99.90
48019;DHT22;33786;48.690;9.562;2023-06-26T00:23:35;15.10;99.90
48019;DHT22;33786;48.690;9.562;2023-06-26T00:26:06;15.00;99.90
48019;DHT22;33786;48.690;9.562;2023-06-26T00:28:32;15.00;99.90
48019;DHT22;33786;48.690;9.562;2023-06-26T00:30:59;15.10;99.90
48019;DHT22;33786;48.690;9.562;2023-06-26T00:33:26;15.00;99.90
48019;DHT22;33786;48.690;9.562;2023-06-26T00:35:53;15.00;99.90
48019;DHT22;33786;48.690;9.562;2023-06-26T00:38:19;15.00;99.90
48019;DHT22;33786;48.690;9.562;2023-06-26T00:40:46;15.00;99.90
48019;DHT22;33786;48.690;9.562;2023-06-26T00:43:13;14.90;99.90
48019;DHT22;33786;48.690;9.562;2023-06-26T00:45:40;14.90;99.90
48019;DHT22;33786;48.690;9.562;2023-06-26T00:48:10;14.90;99.90
48019;DHT22;33786;48.690;9.562;2023-06-26T00:50:39;14.90;99.90
48019;DHT22;33786;48.690;9.562;2023-06-26T00:53:06;14.80;99.90
48019;DHT22;33786;48.690;9.562;2023-06-26T00:55:34;14.80;99.90
48019;DHT22;33786;48.690;9.562;2023-06-26T00:58:00;14.80;99.90
48019;DHT22;33786;48.690;9.562;2023-06-26T01:00:27;14.70;99.90
48019;DHT22;33786;48.690;9.562;2023-06-26T01:02:54;14.60;99.90
48019;DHT22;33786;48.690;9.562;2023-06-26T01:05:26;14.70;99.90
48019;DHT22;33786;48.690;9.562;2023-06-26T01:07:53;14.60;99.90
48019;DHT22;33786;48.690;9.562;2023-06-26T01:10:20;14.60;99.90
48019;DHT22;33786;48.690;9.562;2023-06-26T01:12:47;14.60;99.90
48019;DHT22;33786;48.690;9.562;2023-06-26T01:15:13;14.50;99.90
48019;DHT22;33786;48.690;9.562;2023-06-26T01:17:40;14.50;99.90
48019;DHT22;33786;48.690;9.562;2023-06-26T01:20:11;14.40;99.90
48019;DHT22;33786;48.690;9.562;2023-06-26T01:22:43;14.40;99.90
48019;DHT22;33786;48.690;9.562;2023-06-26T01:25:18;14.40;99.90
48019;DHT22;33786;48.690;9.562;2023-06-26T01:27:48;14.40;99.90
48019;DHT22;33786;48.690;9.562;2023-06-26T01:30:15;14.30;99.90
48019;DHT22;33786;48.690;9.562;2023-06-26T01:32:43;14.30;99.90
48019;DHT22;33786;48.690;9.562;2023-06-26T01:35:11;14.30;99.90
48019;DHT22;33786;48.690;9.562;2023-06-26T01:37:37;14.20;99.90
48019;DHT22;33786;48.690;9.562;2023-06-26T01:40:04;14.20;99.90
48019;DHT22;33786;48.690;9.562;2023-06-26T01:42:32;14.20;99.90
48019;DHT22;33786;48.690;9.562;2023-06-26T01:45:02;14.20;99.90
48019;DHT22;33786;48.690;9.562;2023-06-26T01:47:29;14.10;99.90
48019;DHT22;33786;48.690;9.562;2023-06-26T01:50:11;14.10;99.90
48019;DHT22;33786;48.690;9.562;2023-06-26T01:57:38;13.90;99.90
48019;DHT22;33786;48.690;9.562;2023-06-26T02:00:05;13.90;99.90
48019;DHT22;33786;48.690;9.562;2023-06-26T02:02:36;13.90;99.90
48019;DHT22;33786;48.690;9.562;2023-06-26T02:05:03;13.90;99.90
48019;DHT22;33786;48.690;9.562;2023-06-26T02:07:30;13.80;99.90
48019;DHT22;33786;48.690;9.562;2023-06-26T02:09:57;13.80;99.90
48019;DHT22;33786;48.690;9.562;2023-06-26T02:12:24;13.80;99.90
48019;DHT22;33786;48.690;9.562;2023-06-26T02:14:51;13.90;99.90
48019;DHT22;33786;48.690;9.562;2023-06-26T02:17:17;13.80;99.90
48019;DHT22;33786;48.690;9.562;2023-06-26T02:19:44;13.80;99.90
48019;DHT22;33786;48.690;9.562;2023-06-26T02:22:14;13.70;99.90
48019;DHT22;33786;48.690;9.562;2023-06-26T02:24:42;13.70;99.90
48019;DHT22;33786;48.690;9.562;2023-06-26T02:27:09;13.70;99.90
48019;DHT22;33786;48.690;9.562;2023-06-26T02:29:36;13.70;99.90
48019;DHT22;33786;48.690;9.562;2023-06-26T02:32:03;13.70;99.90
48019;DHT22;33786;48.690;9.562;2023-06-26T02:34:29;13.70;99.90
48019;DHT22;33786;48.690;9.562;2023-06-26T02:36:56;13.70;99.90
48019;DHT22;33786;48.690;9.562;2023-06-26T02:39:25;13.60;99.90
48019;DHT22;33786;48.690;9.562;2023-06-26T02:41:52;13.60;99.90
48019;DHT22;33786;48.690;9.562;2023-06-26T02:44:18;13.60;99.90
48019;DHT22;33786;48.690;9.562;2023-06-26T02:46:45;13.80;99.90
48019;DHT22;33786;48.690;9.562;2023-06-26T02:49:12;13.50;99.90
48019;DHT22;33786;48.690;9.562;2023-06-26T02:51:39;13.50;99.90
48019;DHT22;33786;48.690;9.562;2023-06-26T02:54:06;13.40;99.90
48019;DHT22;33786;48.690;9.562;2023-06-26T02:56:33;13.50;99.90
48019;DHT22;33786;48.690;9.562;2023-06-26T02:59:02;13.50;99.90
48019;DHT22;33786;48.690;9.562;2023-06-26T03:01:29;13.20;99.90
48019;DHT22;33786;48.690;9.562;2023-06-26T03:03:55;13.50;99.90
48019;DHT22;33786;48.690;9.562;2023-06-26T03:06:22;13.50;99.90
48019;DHT22;33786;48.690;9.562;2023-06-26T03:08:49;13.40;99.90
48019;DHT22;33786;48.690;9.562;2023-06-26T03:11:16;13.30;99.90
48019;DHT22;33786;48.690;9.562;2023-06-26T03:13:42;13.30;99.90
48019;DHT22;33786;48.690;9.562;2023-06-26T03:16:09;13.30;99.90
48019;DHT22;33786;48.690;9.562;2023-06-26T03:18:36;13.40;99.90
48019;DHT22;33786;48.690;9.562;2023-06-26T03:21:02;13.30;99.90
48019;DHT22;33786;48.690;9.562;2023-06-26T03:23:29;13.40;99.90
48019;DHT22;33786;48.690;9.562;2023-06-26T03:25:56;13.30;99.90
48019;DHT22;33786;48.690;9.562;2023-06-26T03:28:23;13.30;99.90
48019;DHT22;33786;48.690;9.562;2023-06-26T03:30:49;13.40;99.90
48019;DHT22;33786;48.690;9.562;2023-06-26T03:33:16;13.20;99.90
48019;DHT22;33786;48.690;9.562;2023-06-26T03:35:43;13.30;99.90
48019;DHT22;33786;48.690;9.562;2023-06-26T03:38:10;13.40;99.90
48019;DHT22;33786;48.690;9.562;2023-06-26T03:40:36;13.40;99.90
48019;DHT22;33786;48.690;9.562;2023-06-26T03:43:04;13.40;99.90
48019;DHT22;33786;48.690;9.562;2023-06-26T03:45:30;13.50;99.90
48019;DHT22;33786;48.690;9.562;2023-06-26T03:47:58;13.60;99.90
48019;DHT22;33786;48.690;9.562;2023-06-26T03:50:25;14.10;99.90
48019;DHT22;33786;48.690;9.562;2023-06-26T03:52:52;14.90;99.90
48019;DHT22;33786;48.690;9.562;2023-06-26T03:55:21;16.00;99.90
48019;DHT22;33786;48.690;9.562;2023-06-26T03:57:49;17.10;99.90
48019;DHT22;33786;48.690;9.562;2023-06-26T04:00:16;18.10;99.90
48019;DHT22;33786;48.690;9.562;2023-06-26T04:02:42;19.00;99.90
48019;DHT22;33786;48.690;9.562;2023-06-26T04:05:09;19.90;99.90
48019;DHT22;33786;48.690;9.562;2023-06-26T04:07:37;20.60;98.50
48019;DHT22;33786;48.690;9.562;2023-06-26T04:10:04;21.30;96.80
48019;DHT22;33786;48.690;9.562;2023-06-26T04:12:30;22.00;95.00
48019;DHT22;33786;48.690;9.562;2023-06-26T04:14:57;22.50;93.70
48019;DHT22;33786;48.690;9.562;2023-06-26T04:17:24;23.00;92.80
48019;DHT22;33786;48.690;9.562;2023-06-26T04:19:51;23.80;91.30
48019;DHT22;33786;48.690;9.562;2023-06-26T04:22:17;24.20;90.40
48019;DHT22;33786;48.690;9.562;2023-06-26T04:24:44;24.60;89.10
48019;DHT22;33786;48.690;9.562;2023-06-26T04:27:12;24.80;88.10
48019;DHT22;33786;48.690;9.562;2023-06-26T04:29:42;25.20;86.90
48019;DHT22;33786;48.690;9.562;2023-06-26T04:32:09;25.70;85.30
48019;DHT22;33786;48.690;9.562;2023-06-26T04:34:36;26.50;83.40
48019;DHT22;33786;48.690;9.562;2023-06-26T04:37:05;27.20;80.50
48019;DHT22;33786;48.690;9.562;2023-06-26T04:39:34;27.70;79.50
48019;DHT22;33786;48.690;9.562;2023-06-26T04:42:04;28.10;77.60
48019;DHT22;33786;48.690;9.562;2023-06-26T04:44:31;28.40;76.60
48019;DHT22;33786;48.690;9.562;2023-06-26T04:46:57;29.10;75.20
48019;DHT22;33786;48.690;9.562;2023-06-26T04:49:24;29.30;74.70
48019;DHT22;33786;48.690;9.562;2023-06-26T04:51:51;29.90;73.10
48019;DHT22;33786;48.690;9.562;2023-06-26T04:54:18;30.40;71.70
48019;DHT22;33786;48.690;9.562;2023-06-26T04:56:44;30.70;70.40
48019;DHT22;33786;48.690;9.562;2023-06-26T04:59:13;30.70;70.00
48019;DHT22;33786;48.690;9.562;2023-06-26T05:01:41;30.80;69.70
48019;DHT22;33786;48.690;9.562;2023-06-26T05:04:08;30.40;69.80
48019;DHT22;33786;48.690;9.562;2023-06-26T05:06:35;31.10;68.70
48019;DHT22;33786;48.690;9.562;2023-06-26T05:09:01;31.00;68.40
48019;DHT22;33786;48.690;9.562;2023-06-26T05:11:28;31.20;67.60
48019;DHT22;33786;48.690;9.562;2023-06-26T05:13:55;31.30;67.20
48019;DHT22;33786;48.690;9.562;2023-06-26T05:16:22;31.80;66.30
48019;DHT22;33786;48.690;9.562;2023-06-26T05:18:48;32.40;64.50
48019;DHT22;33786;48.690;9.562;2023-06-26T05:21:15;33.10;63.20
48019;DHT22;33786;48.690;9.562;2023-06-26T05:23:42;33.00;62.80
48019;DHT22;33786;48.690;9.562;2023-06-26T05:26:11;33.50;62.20
48019;DHT22;33786;48.690;9.562;2023-06-26T05:28:37;33.60;61.80
48019;DHT22;33786;48.690;9.562;2023-06-26T05:31:04;32.70;62.30
48019;DHT22;33786;48.690;9.562;2023-06-26T05:33:31;32.90;61.20
48019;DHT22;33786;48.690;9.562;2023-06-26T05:36:00;32.70;61.50
48019;DHT22;33786;48.690;9.562;2023-06-26T05:38:29;33.70;60.40
48019;DHT22;33786;48.690;9.562;2023-06-26T05:40:56;33.60;59.80
48019;DHT22;33786;48.690;9.562;2023-06-26T05:43:23;33.70;59.90
48019;DHT22;33786;48.690;9.562;2023-06-26T05:45:54;34.30;59.90
48019;DHT22;33786;48.690;9.562;2023-06-26T05:48:21;34.40;59.00
48019;DHT22;33786;48.690;9.562;2023-06-26T05:50:48;34.50;59.10
48019;DHT22;33786;48.690;9.562;2023-06-26T05:53:15;34.80;58.50
48019;DHT22;33786;48.690;9.562;2023-06-26T05:55:42;35.00;57.80
48019;DHT22;33786;48.690;9.562;2023-06-26T05:58:12;35.20;57.70
48019;DHT22;33786;48.690;9.562;2023-06-26T06:00:39;35.00;57.70
48019;DHT22;33786;48.690;9.562;2023-06-26T06:03:06;35.70;55.80
48019;DHT22;33786;48.690;9.562;2023-06-26T06:05:33;36.10;55.80
48019;DHT22;33786;48.690;9.562;2023-06-26T06:08:00;37.10;55.00
48019;DHT22;33786;48.690;9.562;2023-06-26T06:10:27;36.30;55.20
48019;DHT22;33786;48.690;9.562;2023-06-26T06:12:53;36.90;54.70
48019;DHT22;33786;48.690;9.562;2023-06-26T06:15:21;36.90;54.40
48019;DHT22;33786;48.690;9.562;2023-06-26T06:17:47;36.30;55.30
48019;DHT22;33786;48.690;9.562;2023-06-26T06:20:14;36.40;54.90
48019;DHT22;33786;48.690;9.562;2023-06-26T06:22:41;36.60;55.10
48019;DHT22;33786;48.690;9.562;2023-06-26T06:25:08;37.00;54.40
48019;DHT22;33786;48.690;9.562;2023-06-26T06:27:34;36.90;54.80
48019;DHT22;33786;48.690;9.562;2023-06-26T06:30:01;36.60;54.80
48019;DHT22;33786;48.690;9.562;2023-06-26T06:32:30;36.60;54.90
48019;DHT22;33786;48.690;9.562;2023-06-26T06:34:56;36.90;54.50
48019;DHT22;33786;48.690;9.562;2023-06-26T06:37:26;38.10;53.30
48019;DHT22;33786;48.690;9.562;2023-06-26T06:39:53;38.80;52.90
48019;DHT22;33786;48.690;9.562;2023-06-26T06:42:20;38.10;52.90
48019;DHT22;33786;48.690;9.562;2023-06-26T06:44:46;38.00;53.60
48019;DHT22;33786;48.690;9.562;2023-06-26T06:47:13;37.60;54.10
48019;DHT22;33786;48.690;9.562;2023-06-26T06:49:40;37.40;54.10
48019;DHT22;33786;48.690;9.562;2023-06-26T06:52:07;37.80;53.20
48019;DHT22;33786;48.690;9.562;2023-06-26T06:54:33;38.00;53.20
48019;DHT22;33786;48.690;9.562;2023-06-26T06:57:17;38.30;52.40
48019;DHT22;33786;48.690;9.562;2023-06-26T06:59:43;38.30;53.00
48019;DHT22;33786;48.690;9.562;2023-06-26T07:02:10;38.10;52.70
48019;DHT22;33786;48.690;9.562;2023-06-26T07:04:37;37.50;52.90
48019;DHT22;33786;48.690;9.562;2023-06-26T07:07:03;37.10;53.70
48019;DHT22;33786;48.690;9.562;2023-06-26T07:09:30;37.20;53.20
48019;DHT22;33786;48.690;9.562;2023-06-26T07:11:57;36.60;53.70
48019;DHT22;33786;48.690;9.562;2023-06-26T07:14:24;37.70;53.00
48019;DHT22;33786;48.690;9.562;2023-06-26T07:16:51;37.80;53.40
48019;DHT22;33786;48.690;9.562;2023-06-26T07:19:17;38.30;52.80
48019;DHT22;33786;48.690;9.562;2023-06-26T07:21:44;38.50;52.80
48019;DHT22;33786;48.690;9.562;2023-06-26T07:24:12;38.00;52.90
48019;DHT22;33786;48.690;9.562;2023-06-26T07:26:39;37.80;53.80
48019;DHT22;33786;48.690;9.562;2023-06-26T07:29:12;37.60;53.00
48019;DHT22;33786;48.690;9.562;2023-06-26T07:31:38;37.00;53.80
48019;DHT22;33786;48.690;9.562;2023-06-26T07:34:05;36.50;54.80
48019;DHT22;33786;48.690;9.562;2023-06-26T07:36:32;36.30;56.10
48019;DHT22;33786;48.690;9.562;2023-06-26T07:38:59;37.20;55.60
48019;DHT22;33786;48.690;9.562;2023-06-26T07:41:26;37.70;53.50
48019;DHT22;33786;48.690;9.562;2023-06-26T07:43:52;37.60;53.40
48019;DHT22;33786;48.690;9.562;2023-06-26T07:46:19;37.50;53.90
48019;DHT22;33786;48.690;9.562;2023-06-26T07:48:46;38.00;53.40
48019;DHT22;33786;48.690;9.562;2023-06-26T07:51:13;38.20;52.40
48019;DHT22;33786;48.690;9.562;2023-06-26T07:53:39;38.70;52.90
48019;DHT22;33786;48.690;9.562;2023-06-26T07:56:06;38.60;52.80
48019;DHT22;33786;48.690;9.562;2023-06-26T07:58:33;39.00;52.40
48019;DHT22;33786;48.690;9.562;2023-06-26T08:00:59;39.10;52.40
48019;DHT22;33786;48.690;9.562;2023-06-26T08:03:26;38.90;52.40
48019;DHT22;33786;48.690;9.562;2023-06-26T08:06:01;38.70;52.30
48019;DHT22;33786;48.690;9.562;2023-06-26T08:08:27;39.00;52.20
48019;DHT22;33786;48.690;9.562;2023-06-26T08:10:54;38.80;51.90
48019;DHT22;33786;48.690;9.562;2023-06-26T08:13:21;37.80;53.80
48019;DHT22;33786;48.690;9.562;2023-06-26T08:15:48;37.70;54.20
48019;DHT22;33786;48.690;9.562;2023-06-26T08:18:14;37.20;53.30
48019;DHT22;33786;48.690;9.562;2023-06-26T08:20:41;36.90;54.20
48019;DHT22;33786;48.690;9.562;2023-06-26T08:23:08;36.90;53.90
48019;DHT22;33786;48.690;9.562;2023-06-26T08:25:35;37.10;54.00
48019;DHT22;33786;48.690;9.562;2023-06-26T08:28:01;36.70;54.40
48019;DHT22;33786;48.690;9.562;2023-06-26T08:30:28;36.00;55.40
48019;DHT22;33786;48.690;9.562;2023-06-26T08:32:55;35.70;55.30
48019;DHT22;33786;48.690;9.562;2023-06-26T08:35:22;35.60;56.60
48019;DHT22;33786;48.690;9.562;2023-06-26T08:37:49;35.20;56.30
48019;DHT22;33786;48.690;9.562;2023-06-26T08:40:16;35.30;57.30
48019;DHT22;33786;48.690;9.562;2023-06-26T08:42:43;35.60;56.60
48019;DHT22;33786;48.690;9.562;2023-06-26T08:45:09;35.40;56.10
48019;DHT22;33786;48.690;9.562;2023-06-26T08:47:36;34.90;56.90
48019;DHT22;33786;48.690;9.562;2023-06-26T08:50:08;34.70;57.70
48019;DHT22;33786;48.690;9.562;2023-06-26T08:52:36;34.30;58.50
48019;DHT22;33786;48.690;9.562;2023-06-26T08:55:06;34.30;57.90
48019;DHT22;33786;48.690;9.562;2023-06-26T08:57:35;34.60;57.80
48019;DHT22;33786;48.690;9.562;2023-06-26T09:00:03;34.70;58.30
48019;DHT22;33786;48.690;9.562;2023-06-26T09:02:30;34.70;56.90
48019;DHT22;33786;48.690;9.562;2023-06-26T09:04:58;34.50;58.90
48019;DHT22;33786;48.690;9.562;2023-06-26T09:07:25;34.70;59.60
48019;DHT22;33786;48.690;9.562;2023-06-26T09:09:52;34.60;57.00
48019;DHT22;33786;48.690;9.562;2023-06-26T09:12:19;34.70;57.20
48019;DHT22;33786;48.690;9.562;2023-06-26T09:14:47;35.40;57.30
48019;DHT22;33786;48.690;9.562;2023-06-26T09:17:13;35.30;56.80
48019;DHT22;33786;48.690;9.562;2023-06-26T09:19:40;34.90;57.30
48019;DHT22;33786;48.690;9.562;2023-06-26T09:22:13;34.80;57.30
48019;DHT22;33786;48.690;9.562;2023-06-26T09:24:41;35.30;58.80
48019;DHT22;33786;48.690;9.562;2023-06-26T09:27:08;35.20;56.70
48019;DHT22;33786;48.690;9.562;2023-06-26T09:29:35;35.10;56.80
48019;DHT22;33786;48.690;9.562;2023-06-26T09:32:02;35.30;57.70
48019;DHT22;33786;48.690;9.562;2023-06-26T09:34:33;35.40;58.60
48019;DHT22;33786;48.690;9.562;2023-06-26T09:37:00;35.20;56.90
48019;DHT22;33786;48.690;9.562;2023-06-26T09:39:32;35.50;56.60
48019;DHT22;33786;48.690;9.562;2023-06-26T09:41:59;35.60;56.80
48019;DHT22;33786;48.690;9.562;2023-06-26T09:44:25;35.40;56.70
48019;DHT22;33786;48.690;9.562;2023-06-26T09:46:52;35.50;56.40
48019;DHT22;33786;48.690;9.562;2023-06-26T09:49:21;35.10;56.60
48019;DHT22;33786;48.690;9.562;2023-06-26T09:51:49;35.40;54.70
48019;DHT22;33786;48.690;9.562;2023-06-26T09:54:16;35.70;56.50
48019;DHT22;33786;48.690;9.562;2023-06-26T09:56:44;35.80;55.60
48019;DHT22;33786;48.690;9.562;2023-06-26T09:59:11;36.10;55.00
48019;DHT22;33786;48.690;9.562;2023-06-26T10:01:41;36.30;56.80
48019;DHT22;33786;48.690;9.562;2023-06-26T10:04:09;36.20;54.00
48019;DHT22;33786;48.690;9.562;2023-06-26T10:06:37;35.50;54.40
48019;DHT22;33786;48.690;9.562;2023-06-26T10:09:05;34.90;55.30
48019;DHT22;33786;48.690;9.562;2023-06-26T10:11:43;35.20;55.70
48019;DHT22;33786;48.690;9.562;2023-06-26T10:14:11;35.70;55.80
48019;DHT22;33786;48.690;9.562;2023-06-26T10:16:43;36.00;55.70
48019;DHT22;33786;48.690;9.562;2023-06-26T10:19:10;36.00;55.00
48019;DHT22;33786;48.690;9.562;2023-06-26T10:21:38;35.70;56.00
48019;DHT22;33786;48.690;9.562;2023-06-26T10:24:06;35.90;54.90
48019;DHT22;33786;48.690;9.562;2023-06-26T10:26:34;35.70;54.50
48019;DHT22;33786;48.690;9.562;2023-06-26T10:29:01;35.60;54.40
48019;DHT22;33786;48.690;9.562;2023-06-26T10:31:29;35.90;55.10
48019;DHT22;33786;48.690;9.562;2023-06-26T10:33:57;36.10;54.70
48019;DHT22;33786;48.690;9.562;2023-06-26T10:36:28;35.80;53.30
48019;DHT22;33786;48.690;9.562;2023-06-26T10:38:57;36.10;55.10
48019;DHT22;33786;48.690;9.562;2023-06-26T10:41:24;36.40;54.50
48019;DHT22;33786;48.690;9.562;2023-06-26T10:46:32;35.80;55.20
48019;DHT22;33786;48.690;9.562;2023-06-26T10:48:59;36.10;53.80
48019;DHT22;33786;48.690;9.562;2023-06-26T10:51:27;35.80;54.30
48019;DHT22;33786;48.690;9.562;2023-06-26T10:53:54;35.80;56.20
48019;DHT22;33786;48.690;9.562;2023-06-26T10:56:21;35.90;55.10
48019;DHT22;33786;48.690;9.562;2023-06-26T10:58:47;35.60;55.60
48019;DHT22;33786;48.690;9.562;2023-06-26T11:01:16;35.60;55.40
48019;DHT22;33786;48.690;9.562;2023-06-26T11:06:17;35.00;55.60
48019;DHT22;33786;48.690;9.562;2023-06-26T11:08:48;34.90;55.80
48019;DHT22;33786;48.690;9.562;2023-06-26T11:11:16;34.50;55.90
48019;DHT22;33786;48.690;9.562;2023-06-26T11:13:44;34.20;56.60
48019;DHT22;33786;48.690;9.562;2023-06-26T11:16:11;33.60;57.50
48019;DHT22;33786;48.690;9.562;2023-06-26T11:18:38;33.40;58.00
48019;DHT22;33786;48.690;9.562;2023-06-26T11:21:08;33.20;58.10
48019;DHT22;33786;48.690;9.562;2023-06-26T11:23:36;33.10;58.70
48019;DHT22;33786;48.690;9.562;2023-06-26T11:26:16;32.80;58.60
48019;DHT22;33786;48.690;9.562;2023-06-26T11:28:55;32.50;59.60
48019;DHT22;33786;48.690;9.562;2023-06-26T11:33:53;31.60;61.00
48019;DHT22;33786;48.690;9.562;2023-06-26T11:36:22;31.50;62.50
48019;DHT22;33786;48.690;9.562;2023-06-26T11:38:52;31.50;62.80
48019;DHT22;33786;48.690;9.562;2023-06-26T11:41:19;31.50;62.70
48019;DHT22;33786;48.690;9.562;2023-06-26T11:43:46;31.50;62.90
48019;DHT22;33786;48.690;9.562;2023-06-26T11:46:12;31.60;62.40
48019;DHT22;33786;48.690;9.562;2023-06-26T11:48:42;31.70;62.90
48019;DHT22;33786;48.690;9.562;2023-06-26T11:51:09;32.00;62.40
48019;DHT22;33786;48.690;9.562;2023-06-26T11:53:39;32.30;62.20
48019;DHT22;33786;48.690;9.562;2023-06-26T11:56:09;32.70;62.10
48019;DHT22;33786;48.690;9.562;2023-06-26T11:58:37;33.20;61.30
48019;DHT22;33786;48.690;9.562;2023-06-26T12:01:19;33.40;60.70
48019;DHT22;33786;48.690;9.562;2023-06-26T12:03:45;33.90;60.50
48019;DHT22;33786;48.690;9.562;2023-06-26T12:06:12;34.40;58.80
48019;DHT22;33786;48.690;9.562;2023-06-26T12:08:39;34.60;59.20
48019;DHT22;33786;48.690;9.562;2023-06-26T12:11:06;34.80;58.70
48019;DHT22;33786;48.690;9.562;2023-06-26T12:13:33;34.60;57.80
48019;DHT22;33786;48.690;9.562;2023-06-26T12:16:00;34.60;58.30
48019;DHT22;33786;48.690;9.562;2023-06-26T12:18:32;34.00;59.00
48019;DHT22;33786;48.690;9.562;2023-06-26T12:21:00;33.80;59.40
48019;DHT22;33786;48.690;9.562;2023-06-26T12:23:39;33.30;60.00
48019;DHT22;33786;48.690;9.562;2023-06-26T12:26:18;33.20;60.30
48019;DHT22;33786;48.690;9.562;2023-06-26T12:28:45;33.50;61.10
48019;DHT22;33786;48.690;9.562;2023-06-26T12:31:15;33.80;59.90
48019;DHT22;33786;48.690;9.562;2023-06-26T12:33:43;33.50;59.60
48019;DHT22;33786;48.690;9.562;2023-06-26T12:36:13;33.40;60.40
48019;DHT22;33786;48.690;9.562;2023-06-26T12:38:40;33.50;60.60
48019;DHT22;33786;48.690;9.562;2023-06-26T12:41:13;33.30;60.70
48019;DHT22;33786;48.690;9.562;2023-06-26T12:43:43;33.00;61.50
48019;DHT22;33786;48.690;9.562;2023-06-26T12:46:10;32.70;62.30
48019;DHT22;33786;48.690;9.562;2023-06-26T12:48:40;32.60;63.20
48019;DHT22;33786;48.690;9.562;2023-06-26T12:51:10;32.40;64.00
48019;DHT22;33786;48.690;9.562;2023-06-26T12:53:37;32.30;64.30
48019;DHT22;33786;48.690;9.562;2023-06-26T12:56:06;32.80;64.70
48019;DHT22;33786;48.690;9.562;2023-06-26T12:58:34;32.70;63.50
48019;DHT22;33786;48.690;9.562;2023-06-26T13:04:29;32.30;64.10
48019;DHT22;33786;48.690;9.562;2023-06-26T13:06:56;31.50;65.90
48019;DHT22;33786;48.690;9.562;2023-06-26T13:12:12;31.90;65.70
48019;DHT22;33786;48.690;9.562;2023-06-26T13:14:42;32.20;65.60
48019;DHT22;33786;48.690;9.562;2023-06-26T13:17:10;32.40;65.20
48019;DHT22;33786;48.690;9.562;2023-06-26T13:19:37;32.70;65.10
48019;DHT22;33786;48.690;9.562;2023-06-26T13:22:04;32.90;65.20
48019;DHT22;33786;48.690;9.562;2023-06-26T13:24:31;32.90;65.10
48019;DHT22;33786;48.690;9.562;2023-06-26T13:26:58;33.40;65.40
48019;DHT22;33786;48.690;9.562;2023-06-26T13:29:25;33.40;64.10
48019;DHT22;33786;48.690;9.562;2023-06-26T13:31:52;33.60;65.70
48019;DHT22;33786;48.690;9.562;2023-06-26T13:34:23;33.80;64.10
48019;DHT22;33786;48.690;9.562;2023-06-26T13:36:50;33.40;63.60
48019;DHT22;33786;48.690;9.562;2023-06-26T13:39:17;33.10;64.40
48019;DHT22;33786;48.690;9.562;2023-06-26T13:41:44;33.20;64.10
48019;DHT22;33786;48.690;9.562;2023-06-26T13:44:11;32.90;64.20
48019;DHT22;33786;48.690;9.562;2023-06-26T13:46:58;32.10;65.60
48019;DHT22;33786;48.690;9.562;2023-06-26T13:49:25;31.70;65.60
48019;DHT22;33786;48.690;9.562;2023-06-26T13:51:51;31.50;66.20
48019;DHT22;33786;48.690;9.562;2023-06-26T13:54:18;31.50;66.70
48019;DHT22;33786;48.690;9.562;2023-06-26T13:56:45;31.40;66.50
48019;DHT22;33786;48.690;9.562;2023-06-26T13:59:12;31.40;66.30
48019;DHT22;33786;48.690;9.562;2023-06-26T14:01:39;31.50;67.20
48019;DHT22;33786;48.690;9.562;2023-06-26T14:04:06;31.50;66.50
48019;DHT22;33786;48.690;9.562;2023-06-26T14:06:32;31.30;66.40
48019;DHT22;33786;48.690;9.562;2023-06-26T14:09:01;31.20;66.10
48019;DHT22;33786;48.690;9.562;2023-06-26T14:11:27;31.30;66.60
48019;DHT22;33786;48.690;9.562;2023-06-26T14:13:54;31.60;66.00
48019;DHT22;33786;48.690;9.562;2023-06-26T14:16:21;31.30;65.30
48019;DHT22;33786;48.690;9.562;2023-06-26T14:18:48;31.60;66.20
48019;DHT22;33786;48.690;9.562;2023-06-26T14:21:14;31.70;66.20
48019;DHT22;33786;48.690;9.562;2023-06-26T14:23:41;32.00;66.30
48019;DHT22;33786;48.690;9.562;2023-06-26T14:26:08;32.30;65.50
48019;DHT22;33786;48.690;9.562;2023-06-26T14:28:35;32.00;64.70
48019;DHT22;33786;48.690;9.562;2023-06-26T14:31:01;32.00;64.90
48019;DHT22;33786;48.690;9.562;2023-06-26T14:33:28;31.80;64.10
48019;DHT22;33786;48.690;9.562;2023-06-26T14:35:55;31.60;65.00
48019;DHT22;33786;48.690;9.562;2023-06-26T14:38:22;31.70;64.10
48019;DHT22;33786;48.690;9.562;2023-06-26T14:40:48;31.70;64.40
48019;DHT22;33786;48.690;9.562;2023-06-26T14:43:16;31.70;64.10
48019;DHT22;33786;48.690;9.562;2023-06-26T14:45:43;31.80;63.90
48019;DHT22;33786;48.690;9.562;2023-06-26T14:48:10;31.80;64.00
48019;DHT22;33786;48.690;9.562;2023-06-26T14:50:37;31.80;63.00
48019;DHT22;33786;48.690;9.562;2023-06-26T14:53:04;31.50;63.10
48019;DHT22;33786;48.690;9.562;2023-06-26T14:55:31;31.40;63.70
48019;DHT22;33786;48.690;9.562;2023-06-26T14:57:57;31.60;63.60
48019;DHT22;33786;48.690;9.562;2023-06-26T15:00:24;31.70;62.40
48019;DHT22;33786;48.690;9.562;2023-06-26T15:02:52;31.50;62.90
48019;DHT22;33786;48.690;9.562;2023-06-26T15:05:24;31.40;62.50
48019;DHT22;33786;48.690;9.562;2023-06-26T15:07:51;31.50;61.40
48019;DHT22;33786;48.690;9.562;2023-06-26T15:10:18;31.60;61.00
48019;DHT22;33786;48.690;9.562;2023-06-26T15:12:45;31.60;60.60
48019;DHT22;33786;48.690;9.562;2023-06-26T15:15:12;31.40;61.00
48019;DHT22;33786;48.690;9.562;2023-06-26T15:17:39;31.40;60.70
48019;DHT22;33786;48.690;9.562;2023-06-26T15:20:06;31.30;60.20
48019;DHT22;33786;48.690;9.562;2023-06-26T15:22:33;31.20;60.30
48019;DHT22;33786;48.690;9.562;2023-06-26T15:24:59;31.20;60.40
48019;DHT22;33786;48.690;9.562;2023-06-26T15:27:26;31.30;60.10
48019;DHT22;33786;48.690;9.562;2023-06-26T15:29:53;31.50;59.80
48019;DHT22;33786;48.690;9.562;2023-06-26T15:32:20;31.40;60.30
48019;DHT22;33786;48.690;9.562;2023-06-26T15:34:47;31.30;60.20
48019;DHT22;33786;48.690;9.562;2023-06-26T15:37:13;31.20;60.20
48019;DHT22;33786;48.690;9.562;2023-06-26T15:39:41;31.10;60.40
48019;DHT22;33786;48.690;9.562;2023-06-26T15:42:08;30.80;60.30
48019;DHT22;33786;48.690;9.562;2023-06-26T15:44:34;30.70;61.00
48019;DHT22;33786;48.690;9.562;2023-06-26T15:47:01;30.90;60.80
48019;DHT22;33786;48.690;9.562;2023-06-26T15:49:28;30.50;62.00
48019;DHT22;33786;48.690;9.562;2023-06-26T15:51:55;30.60;61.10